sensor_id;sensor_type;location;lat;lon;timestamp;temperature;humidity
21502;DHT22;27639;48.674;9.242;2023-07-13T00:02:21;24.90;45.80
21502;DHT22;27639;48.674;9.242;2023-07-13T00:04:47;24.80;45.70
21502;DHT22;27639;48.674;9.242;2023-07-13T00:07:12;24.70;45.70
21502;DHT22;27639;48.674;9.242;2023-07-13T00:09:40;24.60;46.40
21502;DHT22;27639;48.674;9.242;2023-07-13T00:12:25;24.60;45.80
21502;DHT22;27639;48.674;9.242;2023-07-13T00:14:51;24.60;45.60
21502;DHT22;27639;48.674;9.242;2023-07-13T00:17:17;24.60;45.80
21502;DHT22;27639;48.674;9.242;2023-07-13T00:19:42;24.60;45.90
21502;DHT22;27639;48.674;9.242;2023-07-13T00:22:08;24.60;46.00
21502;DHT22;27639;48.674;9.242;2023-07-13T00:24:33;24.60;46.20
21502;DHT22;27639;48.674;9.242;2023-07-13T00:27:01;24.60;46.40
21502;DHT22;27639;48.674;9.242;2023-07-13T00:29:27;24.60;46.50
21502;DHT22;27639;48.674;9.242;2023-07-13T00:31:52;24.60;46.60
21502;DHT22;27639;48.674;9.242;2023-07-13T00:34:18;24.60;46.80
21502;DHT22;27639;48.674;9.242;2023-07-13T00:36:43;24.50;46.70
21502;DHT22;27639;48.674;9.242;2023-07-13T00:39:09;24.50;46.60
21502;DHT22;27639;48.674;9.242;2023-07-13T00:41:35;24.40;46.50
21502;DHT22;27639;48.674;9.242;2023-07-13T00:44:02;24.40;46.50
21502;DHT22;27639;48.674;9.242;2023-07-13T00:46:33;24.30;46.50
21502;DHT22;27639;48.674;9.242;2023-07-13T00:49:03;24.30;46.60
21502;DHT22;27639;48.674;9.242;2023-07-13T00:54:21;24.30;46.70
21502;DHT22;27639;48.674;9.242;2023-07-13T00:56:50;24.20;46.70
21502;DHT22;27639;48.674;9.242;2023-07-13T00:59:18;24.20;46.70
21502;DHT22;27639;48.674;9.242;2023-07-13T01:01:45;24.20;46.70
21502;DHT22;27639;48.674;9.242;2023-07-13T01:04:11;24.20;46.80
21502;DHT22;27639;48.674;9.242;2023-07-13T01:06:37;24.20;46.80
21502;DHT22;27639;48.674;9.242;2023-07-13T01:09:03;24.20;46.70
21502;DHT22;27639;48.674;9.242;2023-07-13T01:11:29;24.20;46.70
21502;DHT22;27639;48.674;9.242;2023-07-13T01:13:55;24.20;46.80
21502;DHT22;27639;48.674;9.242;2023-07-13T01:16:33;24.10;46.60
21502;DHT22;27639;48.674;9.242;2023-07-13T01:18:59;24.10;46.60
21502;DHT22;27639;48.674;9.242;2023-07-13T01:21:29;24.00;46.60
21502;DHT22;27639;48.674;9.242;2023-07-13T01:23:55;24.00;46.60
21502;DHT22;27639;48.674;9.242;2023-07-13T01:26:21;23.90;46.50
21502;DHT22;27639;48.674;9.242;2023-07-13T01:28:47;23.90;46.50
21502;DHT22;27639;48.674;9.242;2023-07-13T01:31:12;23.90;46.50
21502;DHT22;27639;48.674;9.242;2023-07-13T01:33:39;23.80;46.50
21502;DHT22;27639;48.674;9.242;2023-07-13T01:36:09;23.90;46.50
21502;DHT22;27639;48.674;9.242;2023-07-13T01:38:36;23.90;46.50
21502;DHT22;27639;48.674;9.242;2023-07-13T01:41:02;23.90;46.60
21502;DHT22;27639;48.674;9.242;2023-07-13T01:43:27;23.80;46.50
21502;DHT22;27639;48.674;9.242;2023-07-13T01:45:53;23.80;46.70
21502;DHT22;27639;48.674;9.242;2023-07-13T01:48:18;23.80;46.70
21502;DHT22;27639;48.674;9.242;2023-07-13T01:50:47;23.80;46.80
21502;DHT22;27639;48.674;9.242;2023-07-13T01:53:13;23.80;46.70
21502;DHT22;27639;48.674;9.242;2023-07-13T01:55:39;23.80;46.80
21502;DHT22;27639;48.674;9.242;2023-07-13T01:58:05;23.80;46.80
21502;DHT22;27639;48.674;9.242;2023-07-13T02:00:32;23.70;46.90
21502;DHT22;27639;48.674;9.242;2023-07-13T02:02:58;23.70;46.90
21502;DHT22;27639;48.674;9.242;2023-07-13T02:05:23;23.70;47.10
21502;DHT22;27639;48.674;9.242;2023-07-13T02:07:49;23.70;47.00
21502;DHT22;27639;48.674;9.242;2023-07-13T02:10:15;23.70;46.70
21502;DHT22;27639;48.674;9.242;2023-07-13T02:12:41;23.70;46.60
21502;DHT22;27639;48.674;9.242;2023-07-13T02:15:08;23.70;46.70
21502;DHT22;27639;48.674;9.242;2023-07-13T02:17:35;23.70;46.80
21502;DHT22;27639;48.674;9.242;2023-07-13T02:20:01;23.70;46.90
21502;DHT22;27639;48.674;9.242;2023-07-13T02:22:27;23.60;46.80
21502;DHT22;27639;48.674;9.242;2023-07-13T02:24:53;23.70;46.80
21502;DHT22;27639;48.674;9.242;2023-07-13T02:27:19;23.60;46.60
21502;DHT22;27639;48.674;9.242;2023-07-13T02:29:44;23.60;46.60
21502;DHT22;27639;48.674;9.242;2023-07-13T02:32:10;23.60;46.70
21502;DHT22;27639;48.674;9.242;2023-07-13T02:34:35;23.50;46.80
21502;DHT22;27639;48.674;9.242;2023-07-13T02:37:01;23.40;46.80
21502;DHT22;27639;48.674;9.242;2023-07-13T02:39:26;23.30;47.00
21502;DHT22;27639;48.674;9.242;2023-07-13T02:41:52;23.30;47.20
21502;DHT22;27639;48.674;9.242;2023-07-13T02:44:18;23.20;47.30
21502;DHT22;27639;48.674;9.242;2023-07-13T02:46:43;23.20;47.50
21502;DHT22;27639;48.674;9.242;2023-07-13T02:49:09;23.20;47.50
21502;DHT22;27639;48.674;9.242;2023-07-13T02:51:34;23.20;47.50
21502;DHT22;27639;48.674;9.242;2023-07-13T02:54:01;23.20;47.40
21502;DHT22;27639;48.674;9.242;2023-07-13T02:56:28;23.20;47.50
21502;DHT22;27639;48.674;9.242;2023-07-13T02:58:54;23.20;47.60
21502;DHT22;27639;48.674;9.242;2023-07-13T03:01:21;23.20;47.90
21502;DHT22;27639;48.674;9.242;2023-07-13T03:03:48;23.20;48.10
21502;DHT22;27639;48.674;9.242;2023-07-13T03:06:14;23.10;48.20
21502;DHT22;27639;48.674;9.242;2023-07-13T03:08:40;23.10;48.20
21502;DHT22;27639;48.674;9.242;2023-07-13T03:11:09;23.00;48.30
21502;DHT22;27639;48.674;9.242;2023-07-13T03:13:36;23.00;48.40
21502;DHT22;27639;48.674;9.242;2023-07-13T03:16:02;23.00;48.40
21502;DHT22;27639;48.674;9.242;2023-07-13T03:18:28;23.00;48.50
21502;DHT22;27639;48.674;9.242;2023-07-13T03:20:54;23.00;48.60
21502;DHT22;27639;48.674;9.242;2023-07-13T03:23:20;22.90;48.60
21502;DHT22;27639;48.674;9.242;2023-07-13T03:25:46;22.90;48.70
21502;DHT22;27639;48.674;9.242;2023-07-13T03:28:12;22.90;48.90
21502;DHT22;27639;48.674;9.242;2023-07-13T03:30:38;22.80;49.10
21502;DHT22;27639;48.674;9.242;2023-07-13T03:33:05;22.80;49.20
21502;DHT22;27639;48.674;9.242;2023-07-13T03:35:30;22.70;49.20
21502;DHT22;27639;48.674;9.242;2023-07-13T03:37:58;22.80;49.30
21502;DHT22;27639;48.674;9.242;2023-07-13T03:40:25;22.80;49.30
21502;DHT22;27639;48.674;9.242;2023-07-13T03:42:51;22.80;49.20
21502;DHT22;27639;48.674;9.242;2023-07-13T03:45:17;22.70;48.90
21502;DHT22;27639;48.674;9.242;2023-07-13T03:47:43;22.70;49.00
21502;DHT22;27639;48.674;9.242;2023-07-13T03:50:08;22.70;49.10
21502;DHT22;27639;48.674;9.242;2023-07-13T03:52:34;22.80;49.00
21502;DHT22;27639;48.674;9.242;2023-07-13T03:55:00;22.80;49.10
21502;DHT22;27639;48.674;9.242;2023-07-13T03:57:25;22.80;48.90
21502;DHT22;27639;48.674;9.242;2023-07-13T03:59:51;22.80;48.80
21502;DHT22;27639;48.674;9.242;2023-07-13T04:02:17;22.90;49.10
21502;DHT22;27639;48.674;9.242;2023-07-13T04:04:43;22.80;48.90
21502;DHT22;27639;48.674;9.242;2023-07-13T04:07:09;22.80;48.60
21502;DHT22;27639;48.674;9.242;2023-07-13T04:09:35;22.80;48.50
21502;DHT22;27639;48.674;9.242;2023-07-13T04:12:01;22.90;48.90
21502;DHT22;27639;48.674;9.242;2023-07-13T04:14:26;22.80;49.10
21502;DHT22;27639;48.674;9.242;2023-07-13T04:16:52;22.70;49.10
21502;DHT22;27639;48.674;9.242;2023-07-13T04:19:20;22.80;49.00
21502;DHT22;27639;48.674;9.242;2023-07-13T04:21:45;22.70;49.00
21502;DHT22;27639;48.674;9.242;2023-07-13T04:24:11;22.70;49.10
21502;DHT22;27639;48.674;9.242;2023-07-13T04:26:37;22.60;49.10
21502;DHT22;27639;48.674;9.242;2023-07-13T04:29:04;22.60;49.10
21502;DHT22;27639;48.674;9.242;2023-07-13T04:31:30;22.60;49.20
21502;DHT22;27639;48.674;9.242;2023-07-13T04:33:56;22.60;49.30
21502;DHT22;27639;48.674;9.242;2023-07-13T04:36:21;22.60;49.30
21502;DHT22;27639;48.674;9.242;2023-07-13T04:38:47;22.70;49.30
21502;DHT22;27639;48.674;9.242;2023-07-13T04:41:14;22.70;49.20
21502;DHT22;27639;48.674;9.242;2023-07-13T04:43:41;22.70;49.20
21502;DHT22;27639;48.674;9.242;2023-07-13T04:46:09;22.80;49.20
21502;DHT22;27639;48.674;9.242;2023-07-13T04:48:36;22.80;49.30
21502;DHT22;27639;48.674;9.242;2023-07-13T04:51:03;22.90;49.40
21502;DHT22;27639;48.674;9.242;2023-07-13T04:53:29;22.90;49.20
21502;DHT22;27639;48.674;9.242;2023-07-13T04:55:54;23.00;49.20
21502;DHT22;27639;48.674;9.242;2023-07-13T04:58:21;23.00;49.30
21502;DHT22;27639;48.674;9.242;2023-07-13T05:00:47;23.00;49.20
21502;DHT22;27639;48.674;9.242;2023-07-13T05:03:12;23.00;49.30
21502;DHT22;27639;48.674;9.242;2023-07-13T05:05:38;23.00;49.20
21502;DHT22;27639;48.674;9.242;2023-07-13T05:08:04;23.10;48.90
21502;DHT22;27639;48.674;9.242;2023-07-13T05:10:29;23.10;48.60
21502;DHT22;27639;48.674;9.242;2023-07-13T05:12:55;23.10;48.50
21502;DHT22;27639;48.674;9.242;2023-07-13T05:15:22;23.10;48.40
21502;DHT22;27639;48.674;9.242;2023-07-13T05:17:49;23.20;48.30
21502;DHT22;27639;48.674;9.242;2023-07-13T05:20:15;23.20;47.90
21502;DHT22;27639;48.674;9.242;2023-07-13T05:22:42;23.30;47.60
21502;DHT22;27639;48.674;9.242;2023-07-13T05:25:07;23.30;47.20
21502;DHT22;27639;48.674;9.242;2023-07-13T05:27:34;23.40;46.90
21502;DHT22;27639;48.674;9.242;2023-07-13T05:30:00;23.40;46.80
21502;DHT22;27639;48.674;9.242;2023-07-13T05:32:26;23.40;46.30
21502;DHT22;27639;48.674;9.242;2023-07-13T05:34:52;23.40;46.10
21502;DHT22;27639;48.674;9.242;2023-07-13T05:37:18;23.50;45.90
21502;DHT22;27639;48.674;9.242;2023-07-13T05:39:43;23.60;46.00
21502;DHT22;27639;48.674;9.242;2023-07-13T05:42:09;23.60;46.00
21502;DHT22;27639;48.674;9.242;2023-07-13T05:44:34;23.60;45.50
21502;DHT22;27639;48.674;9.242;2023-07-13T05:47:00;23.60;45.00
21502;DHT22;27639;48.674;9.242;2023-07-13T05:49:26;23.70;44.80
21502;DHT22;27639;48.674;9.242;2023-07-13T05:51:51;23.70;45.10
21502;DHT22;27639;48.674;9.242;2023-07-13T05:54:17;23.70;44.70
21502;DHT22;27639;48.674;9.242;2023-07-13T05:56:43;23.70;44.80
21502;DHT22;27639;48.674;9.242;2023-07-13T05:59:08;23.70;45.00
21502;DHT22;27639;48.674;9.242;2023-07-13T06:01:34;23.80;44.90
21502;DHT22;27639;48.674;9.242;2023-07-13T06:03:59;23.70;44.80
21502;DHT22;27639;48.674;9.242;2023-07-13T06:06:25;23.70;44.80
21502;DHT22;27639;48.674;9.242;2023-07-13T06:08:51;23.70;44.70
21502;DHT22;27639;48.674;9.242;2023-07-13T06:11:22;23.70;44.80
21502;DHT22;27639;48.674;9.242;2023-07-13T06:13:48;23.70;45.10
21502;DHT22;27639;48.674;9.242;2023-07-13T06:16:15;23.90;45.60
21502;DHT22;27639;48.674;9.242;2023-07-13T06:18:41;24.00;45.60
21502;DHT22;27639;48.674;9.242;2023-07-13T06:21:12;24.10;45.70
21502;DHT22;27639;48.674;9.242;2023-07-13T06:23:38;24.40;45.60
21502;DHT22;27639;48.674;9.242;2023-07-13T06:26:04;24.60;45.20
21502;DHT22;27639;48.674;9.242;2023-07-13T06:28:30;24.80;45.30
21502;DHT22;27639;48.674;9.242;2023-07-13T06:30:57;24.90;44.70
21502;DHT22;27639;48.674;9.242;2023-07-13T06:33:23;25.00;44.40
21502;DHT22;27639;48.674;9.242;2023-07-13T06:35:48;25.20;44.20
21502;DHT22;27639;48.674;9.242;2023-07-13T06:38:14;25.20;43.20
21502;DHT22;27639;48.674;9.242;2023-07-13T06:40:39;25.20;42.80
21502;DHT22;27639;48.674;9.242;2023-07-13T06:43:05;25.20;43.10
21502;DHT22;27639;48.674;9.242;2023-07-13T06:45:36;25.40;42.90
21502;DHT22;27639;48.674;9.242;2023-07-13T06:48:05;25.50;42.50
21502;DHT22;27639;48.674;9.242;2023-07-13T06:50:31;25.50;42.10
21502;DHT22;27639;48.674;9.242;2023-07-13T06:52:56;25.60;42.10
21502;DHT22;27639;48.674;9.242;2023-07-13T06:55:22;25.80;42.10
21502;DHT22;27639;48.674;9.242;2023-07-13T06:57:47;25.80;41.60
21502;DHT22;27639;48.674;9.242;2023-07-13T07:00:13;25.80;41.60
21502;DHT22;27639;48.674;9.242;2023-07-13T07:02:39;25.80;41.40
21502;DHT22;27639;48.674;9.242;2023-07-13T07:05:05;25.70;41.30
21502;DHT22;27639;48.674;9.242;2023-07-13T07:07:30;25.70;41.20
21502;DHT22;27639;48.674;9.242;2023-07-13T07:09:56;25.80;41.20
21502;DHT22;27639;48.674;9.242;2023-07-13T07:12:21;26.10;41.10
21502;DHT22;27639;48.674;9.242;2023-07-13T07:14:47;26.30;41.20
21502;DHT22;27639;48.674;9.242;2023-07-13T07:17:12;26.50;40.80
21502;DHT22;27639;48.674;9.242;2023-07-13T07:19:38;26.60;40.40
21502;DHT22;27639;48.674;9.242;2023-07-13T07:22:04;26.70;39.40
21502;DHT22;27639;48.674;9.242;2023-07-13T07:24:30;26.90;38.40
21502;DHT22;27639;48.674;9.242;2023-07-13T07:26:55;27.10;38.00
21502;DHT22;27639;48.674;9.242;2023-07-13T07:29:21;27.20;37.80
21502;DHT22;27639;48.674;9.242;2023-07-13T07:31:47;27.30;37.80
21502;DHT22;27639;48.674;9.242;2023-07-13T07:34:13;27.40;37.90
21502;DHT22;27639;48.674;9.242;2023-07-13T07:36:38;27.50;37.40
21502;DHT22;27639;48.674;9.242;2023-07-13T07:39:04;27.50;37.60
21502;DHT22;27639;48.674;9.242;2023-07-13T07:41:30;27.60;37.60
21502;DHT22;27639;48.674;9.242;2023-07-13T07:43:55;27.50;37.50
21502;DHT22;27639;48.674;9.242;2023-07-13T07:46:21;27.50;37.60
21502;DHT22;27639;48.674;9.242;2023-07-13T07:48:46;27.60;37.00
21502;DHT22;27639;48.674;9.242;2023-07-13T07:51:12;27.70;36.30
21502;DHT22;27639;48.674;9.242;2023-07-13T07:53:38;27.70;35.90
21502;DHT22;27639;48.674;9.242;2023-07-13T07:56:03;27.70;35.90
21502;DHT22;27639;48.674;9.242;2023-07-13T07:58:29;27.80;36.00
21502;DHT22;27639;48.674;9.242;2023-07-13T08:01:02;27.90;36.00
21502;DHT22;27639;48.674;9.242;2023-07-13T08:03:28;28.00;35.40
21502;DHT22;27639;48.674;9.242;2023-07-13T08:05:54;28.10;35.20
21502;DHT22;27639;48.674;9.242;2023-07-13T08:08:19;28.20;35.20
21502;DHT22;27639;48.674;9.242;2023-07-13T08:10:45;28.20;35.00
21502;DHT22;27639;48.674;9.242;2023-07-13T08:13:10;28.30;34.50
21502;DHT22;27639;48.674;9.242;2023-07-13T08:15:37;28.40;34.80
21502;DHT22;27639;48.674;9.242;2023-07-13T08:18:02;28.20;34.50
21502;DHT22;27639;48.674;9.242;2023-07-13T08:20:28;28.20;34.50
21502;DHT22;27639;48.674;9.242;2023-07-13T08:22:54;28.30;33.90
21502;DHT22;27639;48.674;9.242;2023-07-13T08:25:19;28.30;33.80
21502;DHT22;27639;48.674;9.242;2023-07-13T08:27:46;28.30;34.00
21502;DHT22;27639;48.674;9.242;2023-07-13T08:30:11;28.30;33.90
21502;DHT22;27639;48.674;9.242;2023-07-13T08:32:37;28.40;33.70
21502;DHT22;27639;48.674;9.242;2023-07-13T08:35:04;28.50;33.20
21502;DHT22;27639;48.674;9.242;2023-07-13T08:37:30;28.50;33.70
21502;DHT22;27639;48.674;9.242;2023-07-13T08:39:55;28.60;33.70
21502;DHT22;27639;48.674;9.242;2023-07-13T08:42:45;28.70;33.80
21502;DHT22;27639;48.674;9.242;2023-07-13T08:45:24;28.60;33.10
21502;DHT22;27639;48.674;9.242;2023-07-13T08:50:25;28.40;33.00
21502;DHT22;27639;48.674;9.242;2023-07-13T08:52:53;28.40;33.00
21502;DHT22;27639;48.674;9.242;2023-07-13T08:55:29;28.50;33.10
21502;DHT22;27639;48.674;9.242;2023-07-13T08:58:11;28.60;33.00
21502;DHT22;27639;48.674;9.242;2023-07-13T09:03:23;28.80;32.80
21502;DHT22;27639;48.674;9.242;2023-07-13T09:05:54;28.80;32.20
21502;DHT22;27639;48.674;9.242;2023-07-13T09:11:27;28.60;32.60
21502;DHT22;27639;48.674;9.242;2023-07-13T09:14:06;28.60;32.10
21502;DHT22;27639;48.674;9.242;2023-07-13T09:16:36;28.50;33.20
21502;DHT22;27639;48.674;9.242;2023-07-13T09:19:06;28.50;32.40
21502;DHT22;27639;48.674;9.242;2023-07-13T09:21:36;28.40;32.50
21502;DHT22;27639;48.674;9.242;2023-07-13T09:27:15;28.60;32.80
21502;DHT22;27639;48.674;9.242;2023-07-13T09:32:43;28.80;32.20
21502;DHT22;27639;48.674;9.242;2023-07-13T09:35:20;29.00;32.00
21502;DHT22;27639;48.674;9.242;2023-07-13T09:37:47;29.10;31.60
21502;DHT22;27639;48.674;9.242;2023-07-13T09:40:36;29.30;32.00
21502;DHT22;27639;48.674;9.242;2023-07-13T09:43:04;29.30;30.60
21502;DHT22;27639;48.674;9.242;2023-07-13T09:45:33;29.30;31.30
21502;DHT22;27639;48.674;9.242;2023-07-13T09:48:10;29.30;31.40
21502;DHT22;27639;48.674;9.242;2023-07-13T09:50:36;29.30;31.00
21502;DHT22;27639;48.674;9.242;2023-07-13T09:53:02;29.30;31.30
21502;DHT22;27639;48.674;9.242;2023-07-13T09:57:54;29.40;31.30
21502;DHT22;27639;48.674;9.242;2023-07-13T10:00:27;29.50;30.80
21502;DHT22;27639;48.674;9.242;2023-07-13T10:03:01;29.50;30.90
21502;DHT22;27639;48.674;9.242;2023-07-13T10:05:37;29.40;30.90
21502;DHT22;27639;48.674;9.242;2023-07-13T10:08:03;29.40;31.20
21502;DHT22;27639;48.674;9.242;2023-07-13T10:10:31;29.40;31.80
21502;DHT22;27639;48.674;9.242;2023-07-13T10:12:57;29.40;32.00
21502;DHT22;27639;48.674;9.242;2023-07-13T10:15:24;29.20;31.90
21502;DHT22;27639;48.674;9.242;2023-07-13T10:17:55;29.20;31.20
21502;DHT22;27639;48.674;9.242;2023-07-13T10:20:23;29.20;31.40
21502;DHT22;27639;48.674;9.242;2023-07-13T10:23:11;29.10;31.50
21502;DHT22;27639;48.674;9.242;2023-07-13T10:25:42;29.10;31.80
21502;DHT22;27639;48.674;9.242;2023-07-13T10:30:52;29.00;31.90
21502;DHT22;27639;48.674;9.242;2023-07-13T10:33:21;29.00;31.70
21502;DHT22;27639;48.674;9.242;2023-07-13T10:35:47;29.00;31.40
21502;DHT22;27639;48.674;9.242;2023-07-13T10:38:18;29.00;31.70
21502;DHT22;27639;48.674;9.242;2023-07-13T10:43:19;28.90;31.70
21502;DHT22;27639;48.674;9.242;2023-07-13T10:45:46;28.90;31.90
21502;DHT22;27639;48.674;9.242;2023-07-13T10:48:16;28.90;31.90
21502;DHT22;27639;48.674;9.242;2023-07-13T10:50:45;29.00;31.70
21502;DHT22;27639;48.674;9.242;2023-07-13T10:53:30;29.20;31.90
21502;DHT22;27639;48.674;9.242;2023-07-13T10:56:01;29.20;31.60
21502;DHT22;27639;48.674;9.242;2023-07-13T11:03:29;29.20;31.00
21502;DHT22;27639;48.674;9.242;2023-07-13T11:11:36;29.10;31.30
21502;DHT22;27639;48.674;9.242;2023-07-13T11:14:03;28.90;31.20
21502;DHT22;27639;48.674;9.242;2023-07-13T11:21:29;29.10;31.70
21502;DHT22;27639;48.674;9.242;2023-07-13T11:31:42;29.60;31.00
21502;DHT22;27639;48.674;9.242;2023-07-13T11:34:15;29.60;30.80
21502;DHT22;27639;48.674;9.242;2023-07-13T11:36:43;29.40;30.80
21502;DHT22;27639;48.674;9.242;2023-07-13T11:39:23;29.40;30.70
21502;DHT22;27639;48.674;9.242;2023-07-13T11:42:00;29.40;30.40
21502;DHT22;27639;48.674;9.242;2023-07-13T11:44:28;29.40;30.30
21502;DHT22;27639;48.674;9.242;2023-07-13T11:46:57;29.40;30.40
21502;DHT22;27639;48.674;9.242;2023-07-13T11:49:26;29.40;30.20
21502;DHT22;27639;48.674;9.242;2023-07-13T11:51:53;29.40;30.30
21502;DHT22;27639;48.674;9.242;2023-07-13T11:54:42;29.40;30.60
21502;DHT22;27639;48.674;9.242;2023-07-13T11:57:32;29.30;30.90
21502;DHT22;27639;48.674;9.242;2023-07-13T12:00:09;29.40;30.90
21502;DHT22;27639;48.674;9.242;2023-07-13T12:02:39;29.50;31.10
21502;DHT22;27639;48.674;9.242;2023-07-13T12:05:09;29.50;31.10
21502;DHT22;27639;48.674;9.242;2023-07-13T12:07:36;29.50;30.70
21502;DHT22;27639;48.674;9.242;2023-07-13T12:15:14;29.40;30.70
21502;DHT22;27639;48.674;9.242;2023-07-13T12:17:41;29.40;30.60
21502;DHT22;27639;48.674;9.242;2023-07-13T12:20:26;29.40;30.60
21502;DHT22;27639;48.674;9.242;2023-07-13T12:22:52;29.40;30.90
21502;DHT22;27639;48.674;9.242;2023-07-13T12:25:19;29.30;31.40
21502;DHT22;27639;48.674;9.242;2023-07-13T12:27:49;29.30;30.90
21502;DHT22;27639;48.674;9.242;2023-07-13T12:30:27;29.20;30.80
21502;DHT22;27639;48.674;9.242;2023-07-13T12:33:11;29.20;31.40
21502;DHT22;27639;48.674;9.242;2023-07-13T12:35:49;29.20;31.40
21502;DHT22;27639;48.674;9.242;2023-07-13T12:38:16;29.20;32.10
21502;DHT22;27639;48.674;9.242;2023-07-13T12:40:42;29.30;31.60
21502;DHT22;27639;48.674;9.242;2023-07-13T12:43:14;29.40;31.30
21502;DHT22;27639;48.674;9.242;2023-07-13T12:45:58;29.40;31.40
21502;DHT22;27639;48.674;9.242;2023-07-13T12:48:24;29.50;31.50
21502;DHT22;27639;48.674;9.242;2023-07-13T12:50:50;29.50;31.10
21502;DHT22;27639;48.674;9.242;2023-07-13T12:53:20;29.40;31.00
21502;DHT22;27639;48.674;9.242;2023-07-13T12:55:50;29.40;31.20
21502;DHT22;27639;48.674;9.242;2023-07-13T12:58:28;29.40;31.10
21502;DHT22;27639;48.674;9.242;2023-07-13T13:00:56;29.40;31.30
21502;DHT22;27639;48.674;9.242;2023-07-13T13:03:29;29.50;31.20
21502;DHT22;27639;48.674;9.242;2023-07-13T13:06:01;29.60;31.20
21502;DHT22;27639;48.674;9.242;2023-07-13T13:08:29;29.60;31.00
21502;DHT22;27639;48.674;9.242;2023-07-13T13:10:55;29.60;30.60
21502;DHT22;27639;48.674;9.242;2023-07-13T13:13:21;29.60;30.70
21502;DHT22;27639;48.674;9.242;2023-07-13T13:15:47;29.60;30.40
21502;DHT22;27639;48.674;9.242;2023-07-13T13:18:21;29.80;30.50
21502;DHT22;27639;48.674;9.242;2023-07-13T13:20:48;29.80;30.00
21502;DHT22;27639;48.674;9.242;2023-07-13T13:23:16;29.90;30.10
21502;DHT22;27639;48.674;9.242;2023-07-13T13:25:43;29.90;29.90
21502;DHT22;27639;48.674;9.242;2023-07-13T13:28:17;30.00;30.30
21502;DHT22;27639;48.674;9.242;2023-07-13T13:30:44;30.00;30.10
21502;DHT22;27639;48.674;9.242;2023-07-13T13:33:11;30.00;30.10
21502;DHT22;27639;48.674;9.242;2023-07-13T13:35:38;30.00;30.10
21502;DHT22;27639;48.674;9.242;2023-07-13T13:38:20;30.00;30.30
21502;DHT22;27639;48.674;9.242;2023-07-13T13:40:47;29.90;29.70
21502;DHT22;27639;48.674;9.242;2023-07-13T13:43:26;29.90;29.80
21502;DHT22;27639;48.674;9.242;2023-07-13T13:45:54;30.00;29.90
21502;DHT22;27639;48.674;9.242;2023-07-13T13:48:31;30.00;30.30
21502;DHT22;27639;48.674;9.242;2023-07-13T13:50:57;30.10;29.90
21502;DHT22;27639;48.674;9.242;2023-07-13T13:53:23;30.10;29.70
21502;DHT22;27639;48.674;9.242;2023-07-13T13:55:49;30.10;29.70
21502;DHT22;27639;48.674;9.242;2023-07-13T13:58:15;30.00;29.30
21502;DHT22;27639;48.674;9.242;2023-07-13T14:00:41;30.00;29.30
21502;DHT22;27639;48.674;9.242;2023-07-13T14:03:18;29.90;29.40
21502;DHT22;27639;48.674;9.242;2023-07-13T14:05:45;29.90;29.50
21502;DHT22;27639;48.674;9.242;2023-07-13T14:08:21;29.90;29.30
21502;DHT22;27639;48.674;9.242;2023-07-13T14:10:49;29.90;29.50
21502;DHT22;27639;48.674;9.242;2023-07-13T14:13:25;30.00;29.60
21502;DHT22;27639;48.674;9.242;2023-07-13T14:15:53;30.10;29.50
21502;DHT22;27639;48.674;9.242;2023-07-13T14:18:18;30.10;29.40
21502;DHT22;27639;48.674;9.242;2023-07-13T14:20:45;30.10;29.30
21502;DHT22;27639;48.674;9.242;2023-07-13T14:23:13;30.10;29.00
21502;DHT22;27639;48.674;9.242;2023-07-13T14:25:40;30.10;29.30
21502;DHT22;27639;48.674;9.242;2023-07-13T14:28:26;30.10;28.80
21502;DHT22;27639;48.674;9.242;2023-07-13T14:30:53;30.00;28.90
21502;DHT22;27639;48.674;9.242;2023-07-13T14:33:20;30.10;28.90
21502;DHT22;27639;48.674;9.242;2023-07-13T14:35:45;30.00;28.70
21502;DHT22;27639;48.674;9.242;2023-07-13T14:38:17;30.00;29.00
21502;DHT22;27639;48.674;9.242;2023-07-13T14:40:43;29.90;29.00
21502;DHT22;27639;48.674;9.242;2023-07-13T14:43:16;29.90;29.20
21502;DHT22;27639;48.674;9.242;2023-07-13T14:45:45;29.90;29.00
21502;DHT22;27639;48.674;9.242;2023-07-13T14:48:22;29.90;29.30
21502;DHT22;27639;48.674;9.242;2023-07-13T14:50:53;29.80;29.30
21502;DHT22;27639;48.674;9.242;2023-07-13T14:53:20;29.80;29.40
21502;DHT22;27639;48.674;9.242;2023-07-13T14:55:45;29.80;29.40
21502;DHT22;27639;48.674;9.242;2023-07-13T14:58:11;29.80;29.50
21502;DHT22;27639;48.674;9.242;2023-07-13T15:00:40;29.70;29.40
21502;DHT22;27639;48.674;9.242;2023-07-13T15:03:17;29.70;29.50
21502;DHT22;27639;48.674;9.242;2023-07-13T15:05:44;29.60;29.60
21502;DHT22;27639;48.674;9.242;2023-07-13T15:08:10;29.70;29.70
21502;DHT22;27639;48.674;9.242;2023-07-13T15:10:36;29.60;29.50
21502;DHT22;27639;48.674;9.242;2023-07-13T15:13:15;29.60;29.60
21502;DHT22;27639;48.674;9.242;2023-07-13T15:15:43;29.60;29.70
21502;DHT22;27639;48.674;9.242;2023-07-13T15:18:14;29.60;29.90
21502;DHT22;27639;48.674;9.242;2023-07-13T15:20:40;29.60;29.80
21502;DHT22;27639;48.674;9.242;2023-07-13T15:23:05;29.50;29.70
21502;DHT22;27639;48.674;9.242;2023-07-13T15:25:33;29.60;29.90
21502;DHT22;27639;48.674;9.242;2023-07-13T15:27:59;29.60;29.90
21502;DHT22;27639;48.674;9.242;2023-07-13T15:30:41;29.60;29.80
21502;DHT22;27639;48.674;9.242;2023-07-13T15:35:44;29.50;30.00
21502;DHT22;27639;48.674;9.242;2023-07-13T15:38:18;29.50;30.00
21502;DHT22;27639;48.674;9.242;2023-07-13T15:40:44;29.40;29.90
21502;DHT22;27639;48.674;9.242;2023-07-13T15:43:11;29.30;30.10
21502;DHT22;27639;48.674;9.242;2023-07-13T15:45:37;29.40;30.20
21502;DHT22;27639;48.674;9.242;2023-07-13T15:48:23;29.30;30.30
21502;DHT22;27639;48.674;9.242;2023-07-13T15:50:50;29.30;30.10
21502;DHT22;27639;48.674;9.242;2023-07-13T15:53:25;29.30;30.10
21502;DHT22;27639;48.674;9.242;2023-07-13T15:55:52;29.20;30.20
21502;DHT22;27639;48.674;9.242;2023-07-13T15:58:18;29.20;30.50
21502;DHT22;27639;48.674;9.242;2023-07-13T16:00:44;29.20;30.60
21502;DHT22;27639;48.674;9.242;2023-07-13T16:03:10;29.20;30.80
21502;DHT22;27639;48.674;9.242;2023-07-13T16:05:36;29.20;30.40
21502;DHT22;27639;48.674;9.242;2023-07-13T16:08:04;29.20;30.50
21502;DHT22;27639;48.674;9.242;2023-07-13T16:10:35;29.20;30.60
21502;DHT22;27639;48.674;9.242;2023-07-13T16:13:04;29.20;30.50
21502;DHT22;27639;48.674;9.242;2023-07-13T16:15:30;29.20;30.60
21502;DHT22;27639;48.674;9.242;2023-07-13T16:17:56;29.20;30.70
21502;DHT22;27639;48.674;9.242;2023-07-13T16:20:23;29.20;30.80
21502;DHT22;27639;48.674;9.242;2023-07-13T16:22:51;29.20;30.90
21502;DHT22;27639;48.674;9.242;2023-07-13T16:25:23;29.20;30.80
21502;DHT22;27639;48.674;9.242;2023-07-13T16:27:50;29.30;30.40
21502;DHT22;27639;48.674;9.242;2023-07-13T16:30:21;29.30;30.40
21502;DHT22;27639;48.674;9.242;2023-07-13T16:32:48;29.30;30.40